sensor_id;sensor_type;location;lat;lon;timestamp;temperature;humidity
40077;DHT22;25777;47.824;18.982;2023-04-30T00:02:18;9.70;99.90
40077;DHT22;25777;47.824;18.982;2023-04-30T00:04:44;9.70;99.90
40077;DHT22;25777;47.824;18.982;2023-04-30T00:07:15;9.70;99.90
40077;DHT22;25777;47.824;18.982;2023-04-30T00:09:41;9.70;99.90
40077;DHT22;25777;47.824;18.982;2023-04-30T00:12:07;9.70;99.90
40077;DHT22;25777;47.824;18.982;2023-04-30T00:14:33;9.70;99.90
40077;DHT22;25777;47.824;18.982;2023-04-30T00:17:00;9.60;99.90
40077;DHT22;25777;47.824;18.982;2023-04-30T00:19:26;9.60;99.90
40077;DHT22;25777;47.824;18.982;2023-04-30T00:21:54;9.60;99.90
40077;DHT22;25777;47.824;18.982;2023-04-30T00:24:24;9.60;99.90
40077;DHT22;25777;47.824;18.982;2023-04-30T00:26:51;9.50;99.90
40077;DHT22;25777;47.824;18.982;2023-04-30T00:29:16;9.60;99.90
40077;DHT22;25777;47.824;18.982;2023-04-30T00:31:42;9.50;99.90
40077;DHT22;25777;47.824;18.982;2023-04-30T00:34:08;9.40;99.90
40077;DHT22;25777;47.824;18.982;2023-04-30T00:36:34;9.50;99.90
40077;DHT22;25777;47.824;18.982;2023-04-30T00:39:01;9.50;99.90
40077;DHT22;25777;47.824;18.982;2023-04-30T00:41:27;9.50;99.90
40077;DHT22;25777;47.824;18.982;2023-04-30T00:43:54;9.40;99.90
40077;DHT22;25777;47.824;18.982;2023-04-30T00:46:19;9.40;99.90
40077;DHT22;25777;47.824;18.982;2023-04-30T00:48:45;9.40;99.90
40077;DHT22;25777;47.824;18.982;2023-04-30T00:51:11;9.40;99.90
40077;DHT22;25777;47.824;18.982;2023-04-30T00:53:37;9.40;99.90
40077;DHT22;25777;47.824;18.982;2023-04-30T00:56:07;9.40;99.90
40077;DHT22;25777;47.824;18.982;2023-04-30T00:58:34;9.40;99.90
40077;DHT22;25777;47.824;18.982;2023-04-30T01:01:02;9.40;99.90
40077;DHT22;25777;47.824;18.982;2023-04-30T01:03:30;9.30;99.90
40077;DHT22;25777;47.824;18.982;2023-04-30T01:05:57;9.40;99.90
40077;DHT22;25777;47.824;18.982;2023-04-30T01:08:23;9.40;99.90
40077;DHT22;25777;47.824;18.982;2023-04-30T01:10:55;9.40;99.90
40077;DHT22;25777;47.824;18.982;2023-04-30T01:14:29;9.40;99.90
40077;DHT22;25777;47.824;18.982;2023-04-30T01:16:23;9.40;99.90
40077;DHT22;25777;47.824;18.982;2023-04-30T01:18:51;9.40;99.90
40077;DHT22;25777;47.824;18.982;2023-04-30T01:21:22;9.40;99.90
40077;DHT22;25777;47.824;18.982;2023-04-30T01:29:27;9.30;99.90
40077;DHT22;25777;47.824;18.982;2023-04-30T01:34:24;9.40;99.90
40077;DHT22;25777;47.824;18.982;2023-04-30T01:42:21;9.20;99.90
40077;DHT22;25777;47.824;18.982;2023-04-30T01:48:01;9.40;99.90
40077;DHT22;25777;47.824;18.982;2023-04-30T01:52:53;9.70;99.90
40077;DHT22;25777;47.824;18.982;2023-04-30T01:58:11;9.70;99.90
40077;DHT22;25777;47.824;18.982;2023-04-30T02:00:43;9.70;99.90
40077;DHT22;25777;47.824;18.982;2023-04-30T02:03:10;9.70;99.90
40077;DHT22;25777;47.824;18.982;2023-04-30T02:05:37;9.70;99.90
40077;DHT22;25777;47.824;18.982;2023-04-30T02:08:11;9.60;99.90
40077;DHT22;25777;47.824;18.982;2023-04-30T02:10:38;9.70;99.90
40077;DHT22;25777;47.824;18.982;2023-04-30T02:13:04;9.70;99.90
40077;DHT22;25777;47.824;18.982;2023-04-30T02:15:30;9.70;99.90
40077;DHT22;25777;47.824;18.982;2023-04-30T02:17:56;9.70;99.90
40077;DHT22;25777;47.824;18.982;2023-04-30T02:20:22;9.60;99.90
40077;DHT22;25777;47.824;18.982;2023-04-30T02:22:47;9.60;99.90
40077;DHT22;25777;47.824;18.982;2023-04-30T02:25:14;9.70;99.90
40077;DHT22;25777;47.824;18.982;2023-04-30T02:27:41;9.70;99.90
40077;DHT22;25777;47.824;18.982;2023-04-30T02:30:08;9.80;99.90
40077;DHT22;25777;47.824;18.982;2023-04-30T02:32:34;9.70;99.90
40077;DHT22;25777;47.824;18.982;2023-04-30T02:35:01;9.60;99.90
40077;DHT22;25777;47.824;18.982;2023-04-30T02:37:27;9.70;99.90
40077;DHT22;25777;47.824;18.982;2023-04-30T02:42:21;9.80;99.90
40077;DHT22;25777;47.824;18.982;2023-04-30T02:44:47;9.80;99.90
40077;DHT22;25777;47.824;18.982;2023-04-30T02:47:15;9.60;99.90
40077;DHT22;25777;47.824;18.982;2023-04-30T02:52:11;9.50;99.90
40077;DHT22;25777;47.824;18.982;2023-04-30T02:54:37;9.40;99.90
40077;DHT22;25777;47.824;18.982;2023-04-30T02:57:03;9.30;99.90
40077;DHT22;25777;47.824;18.982;2023-04-30T02:59:30;9.30;99.90
40077;DHT22;25777;47.824;18.982;2023-04-30T03:01:56;9.30;99.90
40077;DHT22;25777;47.824;18.982;2023-04-30T03:04:21;9.30;99.90
40077;DHT22;25777;47.824;18.982;2023-04-30T03:06:48;9.40;99.90
40077;DHT22;25777;47.824;18.982;2023-04-30T03:09:15;9.50;99.90
40077;DHT22;25777;47.824;18.982;2023-04-30T03:11:41;9.60;99.90
40077;DHT22;25777;47.824;18.982;2023-04-30T03:14:08;9.60;99.90
40077;DHT22;25777;47.824;18.982;2023-04-30T03:16:33;9.60;99.90
40077;DHT22;25777;47.824;18.982;2023-04-30T03:19:00;9.60;99.90
40077;DHT22;25777;47.824;18.982;2023-04-30T03:21:28;9.50;99.90
40077;DHT22;25777;47.824;18.982;2023-04-30T03:23:56;9.50;99.90
40077;DHT22;25777;47.824;18.982;2023-04-30T03:26:21;9.50;99.90
40077;DHT22;25777;47.824;18.982;2023-04-30T03:28:47;9.60;99.90
40077;DHT22;25777;47.824;18.982;2023-04-30T03:31:13;9.60;99.90
40077;DHT22;25777;47.824;18.982;2023-04-30T03:33:39;9.50;99.90
40077;DHT22;25777;47.824;18.982;2023-04-30T03:36:05;9.50;99.90
40077;DHT22;25777;47.824;18.982;2023-04-30T03:38:32;9.40;99.90
40077;DHT22;25777;47.824;18.982;2023-04-30T03:40:57;9.40;99.90
40077;DHT22;25777;47.824;18.982;2023-04-30T03:43:23;9.30;99.90
40077;DHT22;25777;47.824;18.982;2023-04-30T03:45:49;9.30;99.90
40077;DHT22;25777;47.824;18.982;2023-04-30T03:48:15;9.30;99.90
40077;DHT22;25777;47.824;18.982;2023-04-30T03:50:41;9.30;99.90
40077;DHT22;25777;47.824;18.982;2023-04-30T03:53:06;9.20;99.90
40077;DHT22;25777;47.824;18.982;2023-04-30T03:55:32;9.20;99.90
40077;DHT22;25777;47.824;18.982;2023-04-30T03:57:59;9.10;99.90
40077;DHT22;25777;47.824;18.982;2023-04-30T04:00:25;9.20;99.90
40077;DHT22;25777;47.824;18.982;2023-04-30T04:02:52;9.10;99.90
40077;DHT22;25777;47.824;18.982;2023-04-30T04:05:17;9.00;99.90
40077;DHT22;25777;47.824;18.982;2023-04-30T04:07:46;9.10;99.90
40077;DHT22;25777;47.824;18.982;2023-04-30T04:10:11;9.20;99.90
40077;DHT22;25777;47.824;18.982;2023-04-30T04:12:37;9.40;99.90
40077;DHT22;25777;47.824;18.982;2023-04-30T04:15:03;9.60;99.90
40077;DHT22;25777;47.824;18.982;2023-04-30T04:17:29;9.80;99.90
40077;DHT22;25777;47.824;18.982;2023-04-30T04:19:55;9.80;99.90
40077;DHT22;25777;47.824;18.982;2023-04-30T04:22:23;9.80;99.90
40077;DHT22;25777;47.824;18.982;2023-04-30T04:24:49;9.90;99.90
40077;DHT22;25777;47.824;18.982;2023-04-30T04:27:15;9.90;99.90
40077;DHT22;25777;47.824;18.982;2023-04-30T04:29:41;10.00;99.90
40077;DHT22;25777;47.824;18.982;2023-04-30T04:32:13;10.10;99.90
40077;DHT22;25777;47.824;18.982;2023-04-30T04:34:48;10.20;99.90
40077;DHT22;25777;47.824;18.982;2023-04-30T04:37:14;10.30;99.90
40077;DHT22;25777;47.824;18.982;2023-04-30T04:39:42;10.30;99.90
40077;DHT22;25777;47.824;18.982;2023-04-30T04:42:10;10.40;99.90
40077;DHT22;25777;47.824;18.982;2023-04-30T04:47:07;10.50;99.90
40077;DHT22;25777;47.824;18.982;2023-04-30T04:49:35;10.50;99.90
40077;DHT22;25777;47.824;18.982;2023-04-30T04:52:03;10.60;99.90
40077;DHT22;25777;47.824;18.982;2023-04-30T04:56:59;10.80;99.90
40077;DHT22;25777;47.824;18.982;2023-04-30T05:04:48;11.00;99.90
40077;DHT22;25777;47.824;18.982;2023-04-30T05:07:17;11.10;99.90
40077;DHT22;25777;47.824;18.982;2023-04-30T05:09:47;11.20;99.90
40077;DHT22;25777;47.824;18.982;2023-04-30T05:12:13;11.30;99.90
40077;DHT22;25777;47.824;18.982;2023-04-30T05:14:40;11.40;99.90
40077;DHT22;25777;47.824;18.982;2023-04-30T05:17:08;11.50;99.90
40077;DHT22;25777;47.824;18.982;2023-04-30T05:19:36;11.60;99.90
40077;DHT22;25777;47.824;18.982;2023-04-30T05:22:02;11.60;99.90
40077;DHT22;25777;47.824;18.982;2023-04-30T05:24:30;11.70;99.90
40077;DHT22;25777;47.824;18.982;2023-04-30T05:27:00;11.80;99.90
40077;DHT22;25777;47.824;18.982;2023-04-30T05:29:27;11.90;99.90
40077;DHT22;25777;47.824;18.982;2023-04-30T05:31:53;12.00;99.90
40077;DHT22;25777;47.824;18.982;2023-04-30T05:34:31;12.10;99.90
40077;DHT22;25777;47.824;18.982;2023-04-30T05:36:57;12.10;99.90
40077;DHT22;25777;47.824;18.982;2023-04-30T05:39:23;12.20;99.90
40077;DHT22;25777;47.824;18.982;2023-04-30T05:44:21;12.20;99.90
40077;DHT22;25777;47.824;18.982;2023-04-30T05:46:47;12.30;99.90
40077;DHT22;25777;47.824;18.982;2023-04-30T05:49:16;12.40;99.90
40077;DHT22;25777;47.824;18.982;2023-04-30T05:51:44;12.40;99.90
40077;DHT22;25777;47.824;18.982;2023-04-30T05:54:10;12.50;99.90
40077;DHT22;25777;47.824;18.982;2023-04-30T05:56:38;12.50;99.90
40077;DHT22;25777;47.824;18.982;2023-04-30T05:59:10;12.40;99.90
40077;DHT22;25777;47.824;18.982;2023-04-30T06:01:37;12.50;99.90
40077;DHT22;25777;47.824;18.982;2023-04-30T06:04:09;12.70;99.90
40077;DHT22;25777;47.824;18.982;2023-04-30T06:06:37;12.80;99.90
40077;DHT22;25777;47.824;18.982;2023-04-30T06:09:02;12.90;99.90
40077;DHT22;25777;47.824;18.982;2023-04-30T06:11:31;13.00;99.90
40077;DHT22;25777;47.824;18.982;2023-04-30T06:14:03;13.10;99.90
40077;DHT22;25777;47.824;18.982;2023-04-30T06:16:36;13.20;99.90
40077;DHT22;25777;47.824;18.982;2023-04-30T06:21:34;13.40;99.90
40077;DHT22;25777;47.824;18.982;2023-04-30T06:24:02;13.40;99.90
40077;DHT22;25777;47.824;18.982;2023-04-30T06:26:28;13.30;99.90
40077;DHT22;25777;47.824;18.982;2023-04-30T06:29:02;13.30;99.90
40077;DHT22;25777;47.824;18.982;2023-04-30T06:31:35;13.30;99.90
40077;DHT22;25777;47.824;18.982;2023-04-30T06:34:16;13.40;99.90
40077;DHT22;25777;47.824;18.982;2023-04-30T06:36:41;13.60;99.90
40077;DHT22;25777;47.824;18.982;2023-04-30T06:39:07;13.80;99.90
40077;DHT22;25777;47.824;18.982;2023-04-30T06:41:33;14.00;99.90
40077;DHT22;25777;47.824;18.982;2023-04-30T06:46:37;14.50;99.90
40077;DHT22;25777;47.824;18.982;2023-04-30T06:49:04;14.70;99.90
40077;DHT22;25777;47.824;18.982;2023-04-30T06:51:29;15.00;99.90
40077;DHT22;25777;47.824;18.982;2023-04-30T06:53:55;15.20;99.90
40077;DHT22;25777;47.824;18.982;2023-04-30T06:56:21;15.20;99.90
40077;DHT22;25777;47.824;18.982;2023-04-30T06:58:47;15.60;99.90
40077;DHT22;25777;47.824;18.982;2023-04-30T07:01:14;15.90;99.90
40077;DHT22;25777;47.824;18.982;2023-04-30T07:03:46;15.90;99.90
40077;DHT22;25777;47.824;18.982;2023-04-30T07:06:12;15.90;99.90
40077;DHT22;25777;47.824;18.982;2023-04-30T07:08:38;15.90;99.90
40077;DHT22;25777;47.824;18.982;2023-04-30T07:11:05;15.90;99.90
40077;DHT22;25777;47.824;18.982;2023-04-30T07:13:32;16.00;99.90
40077;DHT22;25777;47.824;18.982;2023-04-30T07:15:58;16.10;99.90
40077;DHT22;25777;47.824;18.982;2023-04-30T07:18:24;16.20;99.90
40077;DHT22;25777;47.824;18.982;2023-04-30T07:20:50;16.40;99.90
40077;DHT22;25777;47.824;18.982;2023-04-30T07:23:17;16.60;99.90
40077;DHT22;25777;47.824;18.982;2023-04-30T07:25:45;16.80;97.50
40077;DHT22;25777;47.824;18.982;2023-04-30T07:28:14;16.50;96.30
40077;DHT22;25777;47.824;18.982;2023-04-30T07:30:42;16.10;97.80
40077;DHT22;25777;47.824;18.982;2023-04-30T07:33:07;16.10;97.60
40077;DHT22;25777;47.824;18.982;2023-04-30T07:35:34;16.50;96.20
40077;DHT22;25777;47.824;18.982;2023-04-30T07:37:59;16.80;95.00
40077;DHT22;25777;47.824;18.982;2023-04-30T07:40:26;17.00;94.30
40077;DHT22;25777;47.824;18.982;2023-04-30T07:42:53;17.00;93.90
40077;DHT22;25777;47.824;18.982;2023-04-30T07:45:19;16.90;94.90
40077;DHT22;25777;47.824;18.982;2023-04-30T07:47:46;16.70;94.20
40077;DHT22;25777;47.824;18.982;2023-04-30T07:50:14;16.90;93.60
40077;DHT22;25777;47.824;18.982;2023-04-30T07:52:41;17.00;93.90
40077;DHT22;25777;47.824;18.982;2023-04-30T07:55:07;17.10;93.40
40077;DHT22;25777;47.824;18.982;2023-04-30T07:57:34;16.90;92.40
40077;DHT22;25777;47.824;18.982;2023-04-30T08:00:00;17.10;93.20
40077;DHT22;25777;47.824;18.982;2023-04-30T08:02:25;17.60;94.50
40077;DHT22;25777;47.824;18.982;2023-04-30T08:04:52;17.60;92.90
40077;DHT22;25777;47.824;18.982;2023-04-30T08:07:18;17.50;92.00
40077;DHT22;25777;47.824;18.982;2023-04-30T08:09:46;17.90;91.50
40077;DHT22;25777;47.824;18.982;2023-04-30T08:12:15;17.90;91.80
40077;DHT22;25777;47.824;18.982;2023-04-30T08:14:41;18.20;91.50
40077;DHT22;25777;47.824;18.982;2023-04-30T08:17:07;18.40;90.50
40077;DHT22;25777;47.824;18.982;2023-04-30T08:19:32;18.40;88.90
40077;DHT22;25777;47.824;18.982;2023-04-30T08:21:59;18.20;90.10
40077;DHT22;25777;47.824;18.982;2023-04-30T08:24:27;18.60;86.90
40077;DHT22;25777;47.824;18.982;2023-04-30T08:26:54;18.50;88.90
40077;DHT22;25777;47.824;18.982;2023-04-30T08:29:22;18.80;88.20
40077;DHT22;25777;47.824;18.982;2023-04-30T08:31:50;19.30;87.90
40077;DHT22;25777;47.824;18.982;2023-04-30T08:36:46;19.40;84.30
40077;DHT22;25777;47.824;18.982;2023-04-30T08:39:13;18.70;83.00
40077;DHT22;25777;47.824;18.982;2023-04-30T08:41:47;17.90;85.30
40077;DHT22;25777;47.824;18.982;2023-04-30T08:44:15;17.90;88.80
40077;DHT22;25777;47.824;18.982;2023-04-30T08:46:43;18.60;87.90
40077;DHT22;25777;47.824;18.982;2023-04-30T08:49:09;18.30;79.90
40077;DHT22;25777;47.824;18.982;2023-04-30T08:51:35;18.40;84.10
40077;DHT22;25777;47.824;18.982;2023-04-30T08:54:01;18.00;83.70
40077;DHT22;25777;47.824;18.982;2023-04-30T08:56:27;18.50;85.30
40077;DHT22;25777;47.824;18.982;2023-04-30T08:58:57;19.20;83.20
40077;DHT22;25777;47.824;18.982;2023-04-30T09:01:23;19.60;79.50
40077;DHT22;25777;47.824;18.982;2023-04-30T09:03:49;20.10;82.10
40077;DHT22;25777;47.824;18.982;2023-04-30T09:06:15;20.00;80.20
40077;DHT22;25777;47.824;18.982;2023-04-30T09:08:45;20.40;79.80
40077;DHT22;25777;47.824;18.982;2023-04-30T09:11:20;20.20;73.50
40077;DHT22;25777;47.824;18.982;2023-04-30T09:13:48;19.70;77.60
40077;DHT22;25777;47.824;18.982;2023-04-30T09:16:16;19.00;78.80
40077;DHT22;25777;47.824;18.982;2023-04-30T09:18:42;18.10;81.20
40077;DHT22;25777;47.824;18.982;2023-04-30T09:21:08;17.70;82.80
40077;DHT22;25777;47.824;18.982;2023-04-30T09:23:33;17.50;85.60
40077;DHT22;25777;47.824;18.982;2023-04-30T09:25:59;17.50;82.50
40077;DHT22;25777;47.824;18.982;2023-04-30T09:28:25;17.70;83.20
40077;DHT22;25777;47.824;18.982;2023-04-30T09:30:55;17.80;82.70
40077;DHT22;25777;47.824;18.982;2023-04-30T09:35:51;17.90;83.50
40077;DHT22;25777;47.824;18.982;2023-04-30T09:38:27;17.70;83.70
40077;DHT22;25777;47.824;18.982;2023-04-30T09:40:54;17.60;84.10
40077;DHT22;25777;47.824;18.982;2023-04-30T09:43:20;17.50;83.60
40077;DHT22;25777;47.824;18.982;2023-04-30T09:45:46;17.40;82.50
40077;DHT22;25777;47.824;18.982;2023-04-30T09:48:24;17.40;81.60
40077;DHT22;25777;47.824;18.982;2023-04-30T09:51:03;17.50;84.30
40077;DHT22;25777;47.824;18.982;2023-04-30T09:53:29;17.50;81.50
40077;DHT22;25777;47.824;18.982;2023-04-30T09:55:55;17.50;80.90
40077;DHT22;25777;47.824;18.982;2023-04-30T09:58:24;17.50;82.90
40077;DHT22;25777;47.824;18.982;2023-04-30T10:00:52;17.60;81.80
40077;DHT22;25777;47.824;18.982;2023-04-30T10:03:20;17.80;80.20
40077;DHT22;25777;47.824;18.982;2023-04-30T10:05:47;17.90;78.00
40077;DHT22;25777;47.824;18.982;2023-04-30T10:08:33;18.50;82.20
40077;DHT22;25777;47.824;18.982;2023-04-30T10:11:04;19.20;80.90
40077;DHT22;25777;47.824;18.982;2023-04-30T10:13:41;18.90;77.90
40077;DHT22;25777;47.824;18.982;2023-04-30T10:16:10;18.80;74.70
40077;DHT22;25777;47.824;18.982;2023-04-30T10:21:08;18.80;75.70
40077;DHT22;25777;47.824;18.982;2023-04-30T10:23:43;18.80;76.70
40077;DHT22;25777;47.824;18.982;2023-04-30T10:26:12;19.70;77.10
40077;DHT22;25777;47.824;18.982;2023-04-30T10:28:41;20.00;78.40
40077;DHT22;25777;47.824;18.982;2023-04-30T10:31:07;20.60;76.80
40077;DHT22;25777;47.824;18.982;2023-04-30T10:36:53;21.20;71.50
40077;DHT22;25777;47.824;18.982;2023-04-30T10:39:18;20.10;72.70
40077;DHT22;25777;47.824;18.982;2023-04-30T10:41:45;19.10;74.80
40077;DHT22;25777;47.824;18.982;2023-04-30T10:44:13;18.80;77.70
40077;DHT22;25777;47.824;18.982;2023-04-30T10:46:40;18.50;76.50
40077;DHT22;25777;47.824;18.982;2023-04-30T10:49:06;18.40;78.00
40077;DHT22;25777;47.824;18.982;2023-04-30T10:51:46;18.40;77.10
40077;DHT22;25777;47.824;18.982;2023-04-30T10:54:14;18.40;79.30
40077;DHT22;25777;47.824;18.982;2023-04-30T10:56:49;18.40;77.00
40077;DHT22;25777;47.824;18.982;2023-04-30T10:59:16;18.40;77.90
40077;DHT22;25777;47.824;18.982;2023-04-30T11:04:26;18.30;76.40
40077;DHT22;25777;47.824;18.982;2023-04-30T11:06:54;18.40;78.80
40077;DHT22;25777;47.824;18.982;2023-04-30T11:15:11;18.20;78.30
40077;DHT22;25777;47.824;18.982;2023-04-30T11:20:15;17.90;77.80
40077;DHT22;25777;47.824;18.982;2023-04-30T11:22:44;18.00;77.90
40077;DHT22;25777;47.824;18.982;2023-04-30T11:25:11;17.90;77.30
40077;DHT22;25777;47.824;18.982;2023-04-30T11:27:42;17.80;76.90
40077;DHT22;25777;47.824;18.982;2023-04-30T11:37:35;17.90;75.40
40077;DHT22;25777;47.824;18.982;2023-04-30T11:40:03;17.90;76.40
40077;DHT22;25777;47.824;18.982;2023-04-30T11:42:30;17.90;78.00
40077;DHT22;25777;47.824;18.982;2023-04-30T11:45:12;18.00;77.80
40077;DHT22;25777;47.824;18.982;2023-04-30T11:47:45;18.00;75.20
40077;DHT22;25777;47.824;18.982;2023-04-30T11:52:55;18.00;73.70
40077;DHT22;25777;47.824;18.982;2023-04-30T11:57:52;18.20;76.20
40077;DHT22;25777;47.824;18.982;2023-04-30T12:00:28;18.20;75.60
40077;DHT22;25777;47.824;18.982;2023-04-30T12:02:56;18.10;73.40
40077;DHT22;25777;47.824;18.982;2023-04-30T12:05:24;18.10;76.30
40077;DHT22;25777;47.824;18.982;2023-04-30T12:10:37;18.10;76.10
40077;DHT22;25777;47.824;18.982;2023-04-30T12:13:04;18.20;75.40
40077;DHT22;25777;47.824;18.982;2023-04-30T12:15:29;18.10;73.10
40077;DHT22;25777;47.824;18.982;2023-04-30T12:20:31;18.10;74.00
40077;DHT22;25777;47.824;18.982;2023-04-30T12:25:27;18.20;75.10
40077;DHT22;25777;47.824;18.982;2023-04-30T12:27:57;18.30;76.30
40077;DHT22;25777;47.824;18.982;2023-04-30T12:30:33;18.30;79.50
40077;DHT22;25777;47.824;18.982;2023-04-30T12:33:15;18.50;77.70
40077;DHT22;25777;47.824;18.982;2023-04-30T12:35:51;18.50;77.70
40077;DHT22;25777;47.824;18.982;2023-04-30T12:38:17;18.50;76.10
40077;DHT22;25777;47.824;18.982;2023-04-30T12:40:45;18.50;75.70
40077;DHT22;25777;47.824;18.982;2023-04-30T12:43:13;18.40;78.20
40077;DHT22;25777;47.824;18.982;2023-04-30T12:45:50;18.40;76.80
40077;DHT22;25777;47.824;18.982;2023-04-30T12:48:17;18.60;77.30
40077;DHT22;25777;47.824;18.982;2023-04-30T12:53:31;19.60;81.80
40077;DHT22;25777;47.824;18.982;2023-04-30T12:56:08;20.20;70.90
40077;DHT22;25777;47.824;18.982;2023-04-30T12:58:37;20.60;71.60
40077;DHT22;25777;47.824;18.982;2023-04-30T13:01:09;20.90;70.40
40077;DHT22;25777;47.824;18.982;2023-04-30T13:03:37;20.80;70.30
40077;DHT22;25777;47.824;18.982;2023-04-30T13:06:03;20.60;68.60
40077;DHT22;25777;47.824;18.982;2023-04-30T13:08:32;20.70;73.00
40077;DHT22;25777;47.824;18.982;2023-04-30T13:11:03;21.00;67.40
40077;DHT22;25777;47.824;18.982;2023-04-30T13:18:32;21.90;64.20
40077;DHT22;25777;47.824;18.982;2023-04-30T13:20:58;21.90;67.10
40077;DHT22;25777;47.824;18.982;2023-04-30T13:25:55;21.00;66.30
40077;DHT22;25777;47.824;18.982;2023-04-30T13:28:21;20.30;68.40
40077;DHT22;25777;47.824;18.982;2023-04-30T13:30:47;19.80;70.40
40077;DHT22;25777;47.824;18.982;2023-04-30T13:33:13;19.60;73.00
40077;DHT22;25777;47.824;18.982;2023-04-30T13:38:14;19.20;70.50
40077;DHT22;25777;47.824;18.982;2023-04-30T13:40:40;19.00;69.70
40077;DHT22;25777;47.824;18.982;2023-04-30T13:43:08;19.00;69.60
40077;DHT22;25777;47.824;18.982;2023-04-30T13:45:35;18.90;70.30
40077;DHT22;25777;47.824;18.982;2023-04-30T13:48:02;18.90;72.20
40077;DHT22;25777;47.824;18.982;2023-04-30T13:50:28;18.70;71.70
40077;DHT22;25777;47.824;18.982;2023-04-30T13:52:54;18.60;71.30
40077;DHT22;25777;47.824;18.982;2023-04-30T13:55:21;18.60;72.30
40077;DHT22;25777;47.824;18.982;2023-04-30T13:57:49;18.60;73.20
40077;DHT22;25777;47.824;18.982;2023-04-30T14:00:15;18.50;72.30
40077;DHT22;25777;47.824;18.982;2023-04-30T14:02:41;18.50;72.70
40077;DHT22;25777;47.824;18.982;2023-04-30T14:05:08;18.40;71.60
40077;DHT22;25777;47.824;18.982;2023-04-30T14:07:35;18.30;72.50
40077;DHT22;25777;47.824;18.982;2023-04-30T14:10:01;18.30;71.60
40077;DHT22;25777;47.824;18.982;2023-04-30T14:12:27;18.30;71.20
40077;DHT22;25777;47.824;18.982;2023-04-30T14:14:56;18.80;72.30
40077;DHT22;25777;47.824;18.982;2023-04-30T14:17:23;19.60;73.50
40077;DHT22;25777;47.824;18.982;2023-04-30T14:19:50;20.00;67.90
40077;DHT22;25777;47.824;18.982;2023-04-30T14:25:04;21.10;68.20
40077;DHT22;25777;47.824;18.982;2023-04-30T14:27:38;21.30;65.60
40077;DHT22;25777;47.824;18.982;2023-04-30T14:30:04;21.80;67.40
40077;DHT22;25777;47.824;18.982;2023-04-30T14:37:37;20.30;69.20
40077;DHT22;25777;47.824;18.982;2023-04-30T14:40:03;19.90;66.60
40077;DHT22;25777;47.824;18.982;2023-04-30T14:42:32;19.60;67.70
40077;DHT22;25777;47.824;18.982;2023-04-30T14:44:58;19.40;67.30
40077;DHT22;25777;47.824;18.982;2023-04-30T14:47:24;19.20;68.80
40077;DHT22;25777;47.824;18.982;2023-04-30T14:49:51;19.00;73.50
40077;DHT22;25777;47.824;18.982;2023-04-30T14:52:18;18.80;78.40
40077;DHT22;25777;47.824;18.982;2023-04-30T14:54:44;18.40;79.90
40077;DHT22;25777;47.824;18.982;2023-04-30T14:57:12;18.20;77.80
40077;DHT22;25777;47.824;18.982;2023-04-30T14:59:38;18.10;80.40
40077;DHT22;25777;47.824;18.982;2023-04-30T15:02:06;17.60;84.40
40077;DHT22;25777;47.824;18.982;2023-04-30T15:04:31;17.30;86.90
40077;DHT22;25777;47.824;18.982;2023-04-30T15:06:57;17.20;88.60
40077;DHT22;25777;47.824;18.982;2023-04-30T15:09:23;17.10;90.30
40077;DHT22;25777;47.824;18.982;2023-04-30T15:11:50;16.80;91.50
40077;DHT22;25777;47.824;18.982;2023-04-30T15:14:16;16.60;91.90
40077;DHT22;25777;47.824;18.982;2023-04-30T15:16:42;16.50;92.90
40077;DHT22;25777;47.824;18.982;2023-04-30T15:21:38;16.40;94.80
40077;DHT22;25777;47.824;18.982;2023-04-30T15:24:05;16.50;94.50
40077;DHT22;25777;47.824;18.982;2023-04-30T15:26:33;16.50;95.30
40077;DHT22;25777;47.824;18.982;2023-04-30T15:28:59;16.40;95.40
40077;DHT22;25777;47.824;18.982;2023-04-30T15:31:25;16.30;96.50
40077;DHT22;25777;47.824;18.982;2023-04-30T15:33:51;16.40;96.40
40077;DHT22;25777;47.824;18.982;2023-04-30T15:36:17;16.20;96.70
40077;DHT22;25777;47.824;18.982;2023-04-30T15:38:43;16.30;97.00
40077;DHT22;25777;47.824;18.982;2023-04-30T15:41:09;16.20;97.00
40077;DHT22;25777;47.824;18.982;2023-04-30T15:43:36;16.30;97.30
40077;DHT22;25777;47.824;18.982;2023-04-30T15:46:08;16.20;97.60
40077;DHT22;25777;47.824;18.982;2023-04-30T15:48:42;16.20;98.70
40077;DHT22;25777;47.824;18.982;2023-04-30T15:51:09;16.10;99.90
40077;DHT22;25777;47.824;18.982;2023-04-30T15:53:35;16.00;99.90
40077;DHT22;25777;47.824;18.982;2023-04-30T15:56:02;15.90;99.90
40077;DHT22;25777;47.824;18.982;2023-04-30T15:58:29;15.80;99.90
40077;DHT22;25777;47.824;18.982;2023-04-30T16:00:55;15.80;99.90
40077;DHT22;25777;47.824;18.982;2023-04-30T16:03:21;15.70;99.90
40077;DHT22;25777;47.824;18.982;2023-04-30T16:05:48;15.70;99.90
40077;DHT22;25777;47.824;18.982;2023-04-30T16:08:13;15.60;99.90
40077;DHT22;25777;47.824;18.982;2023-04-30T16:10:39;15.60;99.90
40077;DHT22;25777;47.824;18.982;2023-04-30T16:15:37;15.50;99.90
40077;DHT22;25777;47.824;18.982;2023-04-30T16:18:04;15.40;99.90
40077;DHT22;25777;47.824;18.982;2023-04-30T16:20:30;15.30;99.90
40077;DHT22;25777;47.824;18.982;2023-04-30T16:22:57;15.40;99.90
40077;DHT22;25777;47.824;18.982;2023-04-30T16:25:24;15.40;99.90
40077;DHT22;25777;47.824;18.982;2023-04-30T16:27:57;15.40;99.90
40077;DHT22;25777;47.824;18.982;2023-04-30T16:30:24;15.30;99.90
40077;DHT22;25777;47.824;18.982;2023-04-30T16:32:52;15.20;99.90
40077;DHT22;25777;47.824;18.982;2023-04-30T16:35:18;15.20;99.90
40077;DHT22;25777;47.824;18.982;2023-04-30T16:37:44;15.30;99.90
40077;DHT22;25777;47.824;18.982;2023-04-30T16:40:11;15.30;99.90
40077;DHT22;25777;47.824;18.982;2023-04-30T16:42:39;15.20;99.90
40077;DHT22;25777;47.824;18.982;2023-04-30T16:45:06;15.30;99.90
40077;DHT22;25777;47.824;18.982;2023-04-30T16:47:33;15.30;99.90
40077;DHT22;25777;47.824;18.982;2023-04-30T16:50:00;15.30;99.90
40077;DHT22;25777;47.824;18.982;2023-04-30T16:52:26;15.20;99.90
40077;DHT22;25777;47.824;18.982;2023-04-30T16:57:22;15.10;99.90
40077;DHT22;25777;47.824;18.982;2023-04-30T16:59:56;15.10;99.90
40077;DHT22;25777;47.824;18.982;2023-04-30T17:02:22;15.00;99.90
40077;DHT22;25777;47.824;18.982;2023-04-30T17:04:48;15.00;99.90
40077;DHT22;25777;47.824;18.982;2023-04-30T17:07:14;15.10;99.90
40077;DHT22;25777;47.824;18.982;2023-04-30T17:09:41;15.00;99.90
40077;DHT22;25777;47.824;18.982;2023-04-30T17:12:08;15.00;99.90
40077;DHT22;25777;47.824;18.982;2023-04-30T17:14:34;14.90;99.90
40077;DHT22;25777;47.824;18.982;2023-04-30T17:17:01;15.00;99.90
40077;DHT22;25777;47.824;18.982;2023-04-30T17:21:59;14.90;99.90